sensor_id;sensor_type;location;lat;lon;timestamp;P1;durP1;ratioP1;P2;durP2;ratioP2
41653;SDS011;68687;52.030;7.110;2023-09-07T00:00:59;5.90;;;5.40;;
41653;SDS011;68687;52.030;7.110;2023-09-07T00:03:26;5.93;;;5.32;;
41653;SDS011;68687;52.030;7.110;2023-09-07T00:05:54;8.35;;;5.30;;
41653;SDS011;68687;52.030;7.110;2023-09-07T00:08:22;5.78;;;5.20;;
41653;SDS011;68687;52.030;7.110;2023-09-07T00:10:49;5.32;;;4.63;;
41653;SDS011;68687;52.030;7.110;2023-09-07T00:13:14;8.30;;;5.20;;
41653;SDS011;68687;52.030;7.110;2023-09-07T00:15:39;5.97;;;5.32;;
41653;SDS011;68687;52.030;7.110;2023-09-07T00:18:04;7.90;;;5.30;;
41653;SDS011;68687;52.030;7.110;2023-09-07T00:20:30;7.32;;;5.40;;
41653;SDS011;68687;52.030;7.110;2023-09-07T00:22:58;6.93;;;5.43;;
41653;SDS011;68687;52.030;7.110;2023-09-07T00:25:24;7.85;;;5.60;;
41653;SDS011;68687;52.030;7.110;2023-09-07T00:27:50;6.38;;;5.75;;
41653;SDS011;68687;52.030;7.110;2023-09-07T00:30:21;10.27;;;5.38;;
41653;SDS011;68687;52.030;7.110;2023-09-07T00:32:47;7.28;;;5.45;;
41653;SDS011;68687;52.030;7.110;2023-09-07T00:35:12;7.60;;;5.85;;
41653;SDS011;68687;52.030;7.110;2023-09-07T00:37:37;7.28;;;5.80;;
41653;SDS011;68687;52.030;7.110;2023-09-07T00:40:03;9.07;;;5.88;;
41653;SDS011;68687;52.030;7.110;2023-09-07T00:42:33;6.13;;;5.53;;
41653;SDS011;68687;52.030;7.110;2023-09-07T00:44:58;7.55;;;5.40;;
41653;SDS011;68687;52.030;7.110;2023-09-07T00:47:24;7.07;;;5.35;;
41653;SDS011;68687;52.030;7.110;2023-09-07T00:49:49;13.38;;;5.55;;
41653;SDS011;68687;52.030;7.110;2023-09-07T00:52:18;8.10;;;4.88;;
41653;SDS011;68687;52.030;7.110;2023-09-07T00:54:45;6.30;;;5.10;;
41653;SDS011;68687;52.030;7.110;2023-09-07T00:57:10;7.78;;;5.38;;
41653;SDS011;68687;52.030;7.110;2023-09-07T00:59:36;7.95;;;5.07;;
41653;SDS011;68687;52.030;7.110;2023-09-07T01:02:01;6.90;;;5.43;;
41653;SDS011;68687;52.030;7.110;2023-09-07T01:04:30;8.32;;;6.03;;
41653;SDS011;68687;52.030;7.110;2023-09-07T01:06:56;6.07;;;5.57;;
41653;SDS011;68687;52.030;7.110;2023-09-07T01:09:26;6.25;;;5.45;;
41653;SDS011;68687;52.030;7.110;2023-09-07T01:11:56;10.18;;;6.20;;
41653;SDS011;68687;52.030;7.110;2023-09-07T01:14:21;6.13;;;5.57;;
41653;SDS011;68687;52.030;7.110;2023-09-07T01:16:47;8.30;;;6.43;;
41653;SDS011;68687;52.030;7.110;2023-09-07T01:19:14;5.72;;;5.22;;
41653;SDS011;68687;52.030;7.110;2023-09-07T01:21:39;7.90;;;5.50;;
41653;SDS011;68687;52.030;7.110;2023-09-07T01:24:08;10.35;;;5.20;;
41653;SDS011;68687;52.030;7.110;2023-09-07T01:26:35;9.88;;;5.43;;
41653;SDS011;68687;52.030;7.110;2023-09-07T01:29:07;8.90;;;5.75;;
41653;SDS011;68687;52.030;7.110;2023-09-07T01:31:34;10.07;;;5.72;;
41653;SDS011;68687;52.030;7.110;2023-09-07T01:34:01;9.70;;;5.75;;
41653;SDS011;68687;52.030;7.110;2023-09-07T01:36:26;8.52;;;6.03;;
41653;SDS011;68687;52.030;7.110;2023-09-07T01:38:51;6.72;;;6.13;;
41653;SDS011;68687;52.030;7.110;2023-09-07T01:41:22;7.68;;;6.18;;
41653;SDS011;68687;52.030;7.110;2023-09-07T01:43:48;8.30;;;5.70;;
41653;SDS011;68687;52.030;7.110;2023-09-07T01:46:13;7.15;;;5.80;;
41653;SDS011;68687;52.030;7.110;2023-09-07T01:48:38;7.35;;;5.70;;
41653;SDS011;68687;52.030;7.110;2023-09-07T01:51:04;6.75;;;5.57;;
41653;SDS011;68687;52.030;7.110;2023-09-07T01:53:29;7.88;;;5.82;;
41653;SDS011;68687;52.030;7.110;2023-09-07T01:55:54;10.55;;;6.95;;
41653;SDS011;68687;52.030;7.110;2023-09-07T01:58:21;6.47;;;5.63;;
41653;SDS011;68687;52.030;7.110;2023-09-07T02:00:56;14.70;;;6.50;;
41653;SDS011;68687;52.030;7.110;2023-09-07T02:03:28;7.50;;;5.90;;
41653;SDS011;68687;52.030;7.110;2023-09-07T02:05:54;6.05;;;5.55;;
41653;SDS011;68687;52.030;7.110;2023-09-07T02:08:19;8.60;;;6.00;;
41653;SDS011;68687;52.030;7.110;2023-09-07T02:10:45;11.25;;;6.15;;
41653;SDS011;68687;52.030;7.110;2023-09-07T02:13:10;9.23;;;6.63;;
41653;SDS011;68687;52.030;7.110;2023-09-07T02:15:39;8.93;;;6.43;;
41653;SDS011;68687;52.030;7.110;2023-09-07T02:18:05;10.80;;;7.05;;
41653;SDS011;68687;52.030;7.110;2023-09-07T02:20:31;9.05;;;6.47;;
41653;SDS011;68687;52.030;7.110;2023-09-07T02:22:57;11.70;;;6.45;;
41653;SDS011;68687;52.030;7.110;2023-09-07T02:25:23;12.02;;;7.15;;
41653;SDS011;68687;52.030;7.110;2023-09-07T02:27:51;11.60;;;6.90;;
41653;SDS011;68687;52.030;7.110;2023-09-07T02:30:19;11.48;;;6.25;;
41653;SDS011;68687;52.030;7.110;2023-09-07T02:32:45;9.27;;;6.38;;
41653;SDS011;68687;52.030;7.110;2023-09-07T02:35:10;8.13;;;6.70;;
41653;SDS011;68687;52.030;7.110;2023-09-07T02:37:36;8.10;;;6.43;;
41653;SDS011;68687;52.030;7.110;2023-09-07T02:40:01;10.43;;;6.38;;
41653;SDS011;68687;52.030;7.110;2023-09-07T02:42:31;10.82;;;6.55;;
41653;SDS011;68687;52.030;7.110;2023-09-07T02:44:56;8.63;;;6.57;;
41653;SDS011;68687;52.030;7.110;2023-09-07T02:47:25;7.45;;;6.60;;
41653;SDS011;68687;52.030;7.110;2023-09-07T02:49:50;7.45;;;6.25;;
41653;SDS011;68687;52.030;7.110;2023-09-07T02:52:15;9.45;;;6.97;;
41653;SDS011;68687;52.030;7.110;2023-09-07T02:54:43;7.57;;;6.87;;
41653;SDS011;68687;52.030;7.110;2023-09-07T02:57:09;7.95;;;6.40;;
41653;SDS011;68687;52.030;7.110;2023-09-07T02:59:37;8.30;;;6.60;;
41653;SDS011;68687;52.030;7.110;2023-09-07T03:02:02;9.55;;;7.30;;
41653;SDS011;68687;52.030;7.110;2023-09-07T03:04:27;6.93;;;5.95;;
41653;SDS011;68687;52.030;7.110;2023-09-07T03:06:53;10.07;;;7.10;;
41653;SDS011;68687;52.030;7.110;2023-09-07T03:09:18;8.77;;;6.80;;
41653;SDS011;68687;52.030;7.110;2023-09-07T03:11:43;7.72;;;6.93;;
41653;SDS011;68687;52.030;7.110;2023-09-07T03:14:09;8.57;;;7.10;;
41653;SDS011;68687;52.030;7.110;2023-09-07T03:16:34;13.70;;;8.38;;
41653;SDS011;68687;52.030;7.110;2023-09-07T03:18:59;11.07;;;7.80;;
41653;SDS011;68687;52.030;7.110;2023-09-07T03:21:27;9.82;;;7.88;;
41653;SDS011;68687;52.030;7.110;2023-09-07T03:23:54;11.43;;;7.95;;
41653;SDS011;68687;52.030;7.110;2023-09-07T03:26:21;13.25;;;9.60;;
41653;SDS011;68687;52.030;7.110;2023-09-07T03:28:46;10.73;;;8.27;;
41653;SDS011;68687;52.030;7.110;2023-09-07T03:31:11;9.20;;;8.30;;
41653;SDS011;68687;52.030;7.110;2023-09-07T03:33:37;9.65;;;7.65;;
41653;SDS011;68687;52.030;7.110;2023-09-07T03:36:02;14.13;;;7.35;;
41653;SDS011;68687;52.030;7.110;2023-09-07T03:38:31;11.70;;;7.65;;
41653;SDS011;68687;52.030;7.110;2023-09-07T03:40:59;11.55;;;7.43;;
41653;SDS011;68687;52.030;7.110;2023-09-07T03:43:24;13.77;;;8.18;;
41653;SDS011;68687;52.030;7.110;2023-09-07T03:45:50;12.85;;;8.02;;
41653;SDS011;68687;52.030;7.110;2023-09-07T03:48:15;11.05;;;8.40;;
41653;SDS011;68687;52.030;7.110;2023-09-07T03:50:40;11.65;;;8.85;;
41653;SDS011;68687;52.030;7.110;2023-09-07T03:53:06;9.55;;;8.30;;
41653;SDS011;68687;52.030;7.110;2023-09-07T03:55:39;11.20;;;8.98;;
41653;SDS011;68687;52.030;7.110;2023-09-07T03:58:05;10.88;;;8.32;;
41653;SDS011;68687;52.030;7.110;2023-09-07T04:00:34;9.75;;;8.85;;
41653;SDS011;68687;52.030;7.110;2023-09-07T04:03:02;9.45;;;8.45;;
41653;SDS011;68687;52.030;7.110;2023-09-07T04:05:27;15.25;;;9.52;;
41653;SDS011;68687;52.030;7.110;2023-09-07T04:07:53;11.00;;;8.63;;
41653;SDS011;68687;52.030;7.110;2023-09-07T04:10:18;9.68;;;8.10;;
41653;SDS011;68687;52.030;7.110;2023-09-07T04:12:43;11.23;;;9.23;;
41653;SDS011;68687;52.030;7.110;2023-09-07T04:15:09;14.75;;;8.55;;
41653;SDS011;68687;52.030;7.110;2023-09-07T04:17:34;10.65;;;9.23;;
41653;SDS011;68687;52.030;7.110;2023-09-07T04:20:05;13.18;;;9.30;;
41653;SDS011;68687;52.030;7.110;2023-09-07T04:22:32;9.23;;;8.25;;
41653;SDS011;68687;52.030;7.110;2023-09-07T04:24:57;10.93;;;8.63;;
41653;SDS011;68687;52.030;7.110;2023-09-07T04:27:25;12.13;;;9.60;;
41653;SDS011;68687;52.030;7.110;2023-09-07T04:29:51;10.80;;;9.60;;
41653;SDS011;68687;52.030;7.110;2023-09-07T04:32:22;11.13;;;9.90;;
41653;SDS011;68687;52.030;7.110;2023-09-07T04:34:47;15.13;;;9.25;;
41653;SDS011;68687;52.030;7.110;2023-09-07T04:37:18;12.40;;;9.82;;
41653;SDS011;68687;52.030;7.110;2023-09-07T04:39:43;10.82;;;9.63;;
41653;SDS011;68687;52.030;7.110;2023-09-07T04:42:08;13.15;;;8.98;;
41653;SDS011;68687;52.030;7.110;2023-09-07T04:44:33;15.48;;;8.73;;
41653;SDS011;68687;52.030;7.110;2023-09-07T04:46:59;12.77;;;9.48;;
41653;SDS011;68687;52.030;7.110;2023-09-07T04:49:24;12.93;;;10.07;;
41653;SDS011;68687;52.030;7.110;2023-09-07T04:51:52;11.77;;;10.05;;
41653;SDS011;68687;52.030;7.110;2023-09-07T04:54:18;14.40;;;9.65;;
41653;SDS011;68687;52.030;7.110;2023-09-07T04:56:50;13.52;;;10.32;;
41653;SDS011;68687;52.030;7.110;2023-09-07T04:59:15;11.23;;;9.35;;
41653;SDS011;68687;52.030;7.110;2023-09-07T05:01:40;10.45;;;8.63;;
41653;SDS011;68687;52.030;7.110;2023-09-07T05:04:06;12.80;;;8.90;;
41653;SDS011;68687;52.030;7.110;2023-09-07T05:06:31;9.52;;;8.32;;
41653;SDS011;68687;52.030;7.110;2023-09-07T05:09:01;11.55;;;8.55;;
41653;SDS011;68687;52.030;7.110;2023-09-07T05:11:27;11.90;;;8.45;;
41653;SDS011;68687;52.030;7.110;2023-09-07T05:13:52;10.73;;;8.80;;
41653;SDS011;68687;52.030;7.110;2023-09-07T05:16:24;11.77;;;8.75;;
41653;SDS011;68687;52.030;7.110;2023-09-07T05:18:49;10.45;;;8.25;;
41653;SDS011;68687;52.030;7.110;2023-09-07T05:21:14;13.85;;;8.57;;
41653;SDS011;68687;52.030;7.110;2023-09-07T05:23:40;10.23;;;9.02;;
41653;SDS011;68687;52.030;7.110;2023-09-07T05:26:06;11.70;;;8.95;;
41653;SDS011;68687;52.030;7.110;2023-09-07T05:28:31;16.95;;;9.02;;
41653;SDS011;68687;52.030;7.110;2023-09-07T05:30:56;11.50;;;7.97;;
41653;SDS011;68687;52.030;7.110;2023-09-07T05:33:22;13.35;;;8.95;;
41653;SDS011;68687;52.030;7.110;2023-09-07T05:35:47;13.13;;;7.95;;
41653;SDS011;68687;52.030;7.110;2023-09-07T05:38:19;14.90;;;8.93;;
41653;SDS011;68687;52.030;7.110;2023-09-07T05:40:45;15.90;;;9.15;;
41653;SDS011;68687;52.030;7.110;2023-09-07T05:43:11;13.68;;;9.43;;
41653;SDS011;68687;52.030;7.110;2023-09-07T05:45:40;15.05;;;8.70;;
41653;SDS011;68687;52.030;7.110;2023-09-07T05:48:06;16.13;;;9.00;;
41653;SDS011;68687;52.030;7.110;2023-09-07T05:50:36;13.45;;;9.18;;
41653;SDS011;68687;52.030;7.110;2023-09-07T05:53:03;18.17;;;10.32;;
41653;SDS011;68687;52.030;7.110;2023-09-07T05:55:29;13.90;;;9.00;;
41653;SDS011;68687;52.030;7.110;2023-09-07T05:57:55;13.57;;;9.90;;
41653;SDS011;68687;52.030;7.110;2023-09-07T06:00:24;11.93;;;10.20;;
41653;SDS011;68687;52.030;7.110;2023-09-07T06:02:49;15.55;;;9.55;;
41653;SDS011;68687;52.030;7.110;2023-09-07T06:05:15;12.57;;;10.23;;
41653;SDS011;68687;52.030;7.110;2023-09-07T06:07:41;14.07;;;9.85;;
41653;SDS011;68687;52.030;7.110;2023-09-07T06:10:06;16.25;;;10.38;;
41653;SDS011;68687;52.030;7.110;2023-09-07T06:12:32;13.10;;;8.77;;
41653;SDS011;68687;52.030;7.110;2023-09-07T06:14:58;11.38;;;9.52;;
41653;SDS011;68687;52.030;7.110;2023-09-07T06:17:24;15.88;;;9.10;;
41653;SDS011;68687;52.030;7.110;2023-09-07T06:19:55;11.80;;;8.98;;
41653;SDS011;68687;52.030;7.110;2023-09-07T06:22:21;13.25;;;8.93;;
41653;SDS011;68687;52.030;7.110;2023-09-07T06:24:47;12.80;;;9.25;;
41653;SDS011;68687;52.030;7.110;2023-09-07T06:27:12;15.57;;;8.93;;
41653;SDS011;68687;52.030;7.110;2023-09-07T06:29:37;11.93;;;8.27;;
41653;SDS011;68687;52.030;7.110;2023-09-07T06:32:03;12.02;;;9.57;;
41653;SDS011;68687;52.030;7.110;2023-09-07T06:34:28;11.63;;;8.40;;
41653;SDS011;68687;52.030;7.110;2023-09-07T06:36:53;11.40;;;8.25;;
41653;SDS011;68687;52.030;7.110;2023-09-07T06:39:19;12.15;;;8.63;;
41653;SDS011;68687;52.030;7.110;2023-09-07T06:41:47;15.05;;;9.02;;
41653;SDS011;68687;52.030;7.110;2023-09-07T06:44:16;13.80;;;8.50;;
41653;SDS011;68687;52.030;7.110;2023-09-07T06:46:41;12.50;;;8.35;;
41653;SDS011;68687;52.030;7.110;2023-09-07T06:49:06;9.88;;;7.90;;
41653;SDS011;68687;52.030;7.110;2023-09-07T06:51:32;10.95;;;8.25;;
41653;SDS011;68687;52.030;7.110;2023-09-07T06:53:58;12.60;;;7.85;;
41653;SDS011;68687;52.030;7.110;2023-09-07T06:56:23;14.40;;;8.90;;
41653;SDS011;68687;52.030;7.110;2023-09-07T06:58:49;11.93;;;8.70;;
41653;SDS011;68687;52.030;7.110;2023-09-07T07:01:14;12.13;;;8.55;;
41653;SDS011;68687;52.030;7.110;2023-09-07T07:03:40;13.18;;;8.25;;
41653;SDS011;68687;52.030;7.110;2023-09-07T07:06:06;13.35;;;8.98;;
41653;SDS011;68687;52.030;7.110;2023-09-07T07:08:31;11.13;;;7.95;;
41653;SDS011;68687;52.030;7.110;2023-09-07T07:10:56;11.93;;;8.30;;
41653;SDS011;68687;52.030;7.110;2023-09-07T07:13:22;10.00;;;8.00;;
41653;SDS011;68687;52.030;7.110;2023-09-07T07:15:47;11.77;;;7.97;;
41653;SDS011;68687;52.030;7.110;2023-09-07T07:18:12;11.63;;;7.60;;
41653;SDS011;68687;52.030;7.110;2023-09-07T07:20:38;14.48;;;8.18;;
41653;SDS011;68687;52.030;7.110;2023-09-07T07:23:04;11.95;;;7.72;;
41653;SDS011;68687;52.030;7.110;2023-09-07T07:25:31;15.23;;;8.00;;
41653;SDS011;68687;52.030;7.110;2023-09-07T07:27:58;14.48;;;8.95;;
41653;SDS011;68687;52.030;7.110;2023-09-07T07:30:30;10.05;;;7.95;;
41653;SDS011;68687;52.030;7.110;2023-09-07T07:32:56;13.40;;;7.82;;
41653;SDS011;68687;52.030;7.110;2023-09-07T07:35:24;14.32;;;8.23;;
41653;SDS011;68687;52.030;7.110;2023-09-07T07:37:49;9.52;;;7.95;;
41653;SDS011;68687;52.030;7.110;2023-09-07T07:40:15;12.32;;;7.32;;
41653;SDS011;68687;52.030;7.110;2023-09-07T07:42:42;8.38;;;7.55;;
41653;SDS011;68687;52.030;7.110;2023-09-07T07:45:08;14.75;;;8.80;;
41653;SDS011;68687;52.030;7.110;2023-09-07T07:47:34;10.10;;;7.28;;
41653;SDS011;68687;52.030;7.110;2023-09-07T07:49:59;8.17;;;7.13;;
41653;SDS011;68687;52.030;7.110;2023-09-07T07:52:24;9.55;;;7.35;;
41653;SDS011;68687;52.030;7.110;2023-09-07T07:54:49;8.30;;;7.30;;
41653;SDS011;68687;52.030;7.110;2023-09-07T07:57:15;8.45;;;6.93;;
41653;SDS011;68687;52.030;7.110;2023-09-07T07:59:40;12.43;;;7.10;;
41653;SDS011;68687;52.030;7.110;2023-09-07T08:02:05;8.65;;;6.68;;
41653;SDS011;68687;52.030;7.110;2023-09-07T08:04:31;9.77;;;6.90;;
41653;SDS011;68687;52.030;7.110;2023-09-07T08:06:57;8.32;;;6.82;;
41653;SDS011;68687;52.030;7.110;2023-09-07T08:09:31;9.45;;;6.53;;
41653;SDS011;68687;52.030;7.110;2023-09-07T08:11:57;7.35;;;6.68;;
41653;SDS011;68687;52.030;7.110;2023-09-07T08:14:23;18.40;;;6.55;;
41653;SDS011;68687;52.030;7.110;2023-09-07T08:16:50;8.38;;;6.47;;
41653;SDS011;68687;52.030;7.110;2023-09-07T08:19:15;7.28;;;6.50;;
41653;SDS011;68687;52.030;7.110;2023-09-07T08:21:41;7.10;;;6.40;;
41653;SDS011;68687;52.030;7.110;2023-09-07T08:24:07;9.15;;;6.88;;
41653;SDS011;68687;52.030;7.110;2023-09-07T08:26:33;9.77;;;6.18;;
41653;SDS011;68687;52.030;7.110;2023-09-07T08:28:58;8.52;;;6.88;;
41653;SDS011;68687;52.030;7.110;2023-09-07T08:31:24;12.15;;;6.90;;
41653;SDS011;68687;52.030;7.110;2023-09-07T08:33:49;8.98;;;6.63;;
41653;SDS011;68687;52.030;7.110;2023-09-07T08:36:19;7.43;;;6.43;;
41653;SDS011;68687;52.030;7.110;2023-09-07T08:38:47;13.38;;;6.55;;
41653;SDS011;68687;52.030;7.110;2023-09-07T08:41:13;9.50;;;6.35;;
41653;SDS011;68687;52.030;7.110;2023-09-07T08:43:39;7.03;;;5.70;;
41653;SDS011;68687;52.030;7.110;2023-09-07T08:48:43;8.00;;;6.93;;
41653;SDS011;68687;52.030;7.110;2023-09-07T08:51:09;10.90;;;6.72;;
41653;SDS011;68687;52.030;7.110;2023-09-07T08:53:41;9.63;;;7.05;;
41653;SDS011;68687;52.030;7.110;2023-09-07T08:56:10;8.18;;;7.18;;
41653;SDS011;68687;52.030;7.110;2023-09-07T08:58:36;7.68;;;6.97;;
41653;SDS011;68687;52.030;7.110;2023-09-07T09:01:01;9.45;;;6.85;;
41653;SDS011;68687;52.030;7.110;2023-09-07T09:03:28;6.90;;;6.20;;
41653;SDS011;68687;52.030;7.110;2023-09-07T09:05:54;9.07;;;6.68;;
41653;SDS011;68687;52.030;7.110;2023-09-07T09:08:21;14.88;;;6.25;;
41653;SDS011;68687;52.030;7.110;2023-09-07T09:10:49;7.55;;;6.85;;
41653;SDS011;68687;52.030;7.110;2023-09-07T09:13:29;8.23;;;6.55;;
41653;SDS011;68687;52.030;7.110;2023-09-07T09:16:00;9.55;;;6.13;;
41653;SDS011;68687;52.030;7.110;2023-09-07T09:18:27;7.38;;;6.50;;
41653;SDS011;68687;52.030;7.110;2023-09-07T09:20:53;7.57;;;5.60;;
41653;SDS011;68687;52.030;7.110;2023-09-07T09:23:22;8.95;;;5.78;;
41653;SDS011;68687;52.030;7.110;2023-09-07T09:25:54;9.10;;;6.68;;
41653;SDS011;68687;52.030;7.110;2023-09-07T09:28:19;12.10;;;6.57;;
41653;SDS011;68687;52.030;7.110;2023-09-07T09:30:48;7.30;;;5.60;;
41653;SDS011;68687;52.030;7.110;2023-09-07T09:33:14;9.77;;;6.13;;
41653;SDS011;68687;52.030;7.110;2023-09-07T09:35:39;7.20;;;6.55;;
41653;SDS011;68687;52.030;7.110;2023-09-07T09:38:07;8.10;;;6.38;;
41653;SDS011;68687;52.030;7.110;2023-09-07T09:40:33;8.75;;;6.10;;
41653;SDS011;68687;52.030;7.110;2023-09-07T09:43:03;13.15;;;6.10;;
41653;SDS011;68687;52.030;7.110;2023-09-07T09:45:31;8.23;;;5.60;;
41653;SDS011;68687;52.030;7.110;2023-09-07T09:47:58;8.25;;;5.93;;
41653;SDS011;68687;52.030;7.110;2023-09-07T09:50:25;9.35;;;6.57;;
41653;SDS011;68687;52.030;7.110;2023-09-07T09:52:52;9.57;;;5.65;;
41653;SDS011;68687;52.030;7.110;2023-09-07T09:55:18;6.90;;;6.10;;
41653;SDS011;68687;52.030;7.110;2023-09-07T09:57:44;9.77;;;6.25;;
41653;SDS011;68687;52.030;7.110;2023-09-07T10:00:09;7.38;;;6.00;;
41653;SDS011;68687;52.030;7.110;2023-09-07T10:05:15;8.98;;;6.57;;
41653;SDS011;68687;52.030;7.110;2023-09-07T10:07:48;8.25;;;6.30;;
41653;SDS011;68687;52.030;7.110;2023-09-07T10:10:21;7.75;;;5.88;;
41653;SDS011;68687;52.030;7.110;2023-09-07T10:12:51;10.32;;;6.20;;
41653;SDS011;68687;52.030;7.110;2023-09-07T10:15:21;8.50;;;6.28;;
41653;SDS011;68687;52.030;7.110;2023-09-07T10:17:50;8.93;;;5.97;;
41653;SDS011;68687;52.030;7.110;2023-09-07T10:20:27;10.15;;;5.97;;
41653;SDS011;68687;52.030;7.110;2023-09-07T10:23:01;7.10;;;6.50;;
41653;SDS011;68687;52.030;7.110;2023-09-07T10:25:29;10.63;;;6.13;;
41653;SDS011;68687;52.030;7.110;2023-09-07T10:27:55;7.07;;;5.90;;
41653;SDS011;68687;52.030;7.110;2023-09-07T10:30:20;11.47;;;6.00;;
41653;SDS011;68687;52.030;7.110;2023-09-07T10:32:48;8.30;;;6.13;;
41653;SDS011;68687;52.030;7.110;2023-09-07T10:35:20;7.63;;;6.28;;
41653;SDS011;68687;52.030;7.110;2023-09-07T10:37:50;8.73;;;6.43;;
41653;SDS011;68687;52.030;7.110;2023-09-07T10:40:20;7.10;;;6.40;;
41653;SDS011;68687;52.030;7.110;2023-09-07T10:42:46;7.60;;;5.93;;
41653;SDS011;68687;52.030;7.110;2023-09-07T10:45:13;7.03;;;6.05;;
41653;SDS011;68687;52.030;7.110;2023-09-07T10:47:44;6.15;;;5.63;;
41653;SDS011;68687;52.030;7.110;2023-09-07T10:50:16;9.55;;;5.57;;
41653;SDS011;68687;52.030;7.110;2023-09-07T10:52:42;6.28;;;5.68;;
41653;SDS011;68687;52.030;7.110;2023-09-07T10:55:10;6.20;;;5.60;;
41653;SDS011;68687;52.030;7.110;2023-09-07T10:57:45;5.95;;;5.38;;
41653;SDS011;68687;52.030;7.110;2023-09-07T11:00:11;6.65;;;5.68;;
41653;SDS011;68687;52.030;7.110;2023-09-07T11:02:38;6.55;;;5.78;;
41653;SDS011;68687;52.030;7.110;2023-09-07T11:05:05;9.18;;;6.38;;
41653;SDS011;68687;52.030;7.110;2023-09-07T11:07:31;7.47;;;6.72;;
41653;SDS011;68687;52.030;7.110;2023-09-07T11:09:56;9.88;;;6.10;;
41653;SDS011;68687;52.030;7.110;2023-09-07T11:12:22;6.85;;;6.15;;
41653;SDS011;68687;52.030;7.110;2023-09-07T11:14:47;8.63;;;5.93;;
41653;SDS011;68687;52.030;7.110;2023-09-07T11:17:16;8.98;;;6.15;;
41653;SDS011;68687;52.030;7.110;2023-09-07T11:19:41;8.48;;;6.15;;
41653;SDS011;68687;52.030;7.110;2023-09-07T11:22:09;7.30;;;6.27;;
41653;SDS011;68687;52.030;7.110;2023-09-07T11:24:35;7.88;;;6.88;;
41653;SDS011;68687;52.030;7.110;2023-09-07T11:27:00;8.73;;;6.07;;
41653;SDS011;68687;52.030;7.110;2023-09-07T11:29:26;9.30;;;6.07;;
41653;SDS011;68687;52.030;7.110;2023-09-07T11:31:51;6.82;;;6.13;;
41653;SDS011;68687;52.030;7.110;2023-09-07T11:34:19;7.20;;;6.50;;
41653;SDS011;68687;52.030;7.110;2023-09-07T11:36:47;7.70;;;6.68;;
41653;SDS011;68687;52.030;7.110;2023-09-07T11:39:17;9.13;;;7.18;;
41653;SDS011;68687;52.030;7.110;2023-09-07T11:41:42;9.10;;;6.40;;
41653;SDS011;68687;52.030;7.110;2023-09-07T11:44:15;8.18;;;6.05;;
41653;SDS011;68687;52.030;7.110;2023-09-07T11:46:46;7.05;;;6.45;;
41653;SDS011;68687;52.030;7.110;2023-09-07T11:49:15;7.03;;;6.00;;
41653;SDS011;68687;52.030;7.110;2023-09-07T11:51:45;7.32;;;6.20;;
41653;SDS011;68687;52.030;7.110;2023-09-07T11:54:13;6.72;;;6.03;;
41653;SDS011;68687;52.030;7.110;2023-09-07T11:56:39;7.22;;;6.55;;
41653;SDS011;68687;52.030;7.110;2023-09-07T11:59:08;7.15;;;6.45;;
41653;SDS011;68687;52.030;7.110;2023-09-07T12:01:40;8.02;;;6.13;;
41653;SDS011;68687;52.030;7.110;2023-09-07T12:04:05;9.30;;;5.70;;
41653;SDS011;68687;52.030;7.110;2023-09-07T12:06:37;8.02;;;6.28;;
41653;SDS011;68687;52.030;7.110;2023-09-07T12:09:03;8.82;;;5.95;;
41653;SDS011;68687;52.030;7.110;2023-09-07T12:11:31;7.18;;;5.35;;
41653;SDS011;68687;52.030;7.110;2023-09-07T12:13:57;7.70;;;6.57;;
41653;SDS011;68687;52.030;7.110;2023-09-07T12:16:22;7.80;;;6.37;;
41653;SDS011;68687;52.030;7.110;2023-09-07T12:18:47;9.80;;;5.80;;
41653;SDS011;68687;52.030;7.110;2023-09-07T12:21:13;9.27;;;6.32;;
41653;SDS011;68687;52.030;7.110;2023-09-07T12:23:38;8.00;;;6.00;;
41653;SDS011;68687;52.030;7.110;2023-09-07T12:26:03;7.63;;;6.03;;
41653;SDS011;68687;52.030;7.110;2023-09-07T12:28:29;8.65;;;6.32;;
41653;SDS011;68687;52.030;7.110;2023-09-07T12:30:57;7.47;;;5.85;;
41653;SDS011;68687;52.030;7.110;2023-09-07T12:33:23;12.10;;;6.25;;
41653;SDS011;68687;52.030;7.110;2023-09-07T12:35:49;10.20;;;5.50;;
41653;SDS011;68687;52.030;7.110;2023-09-07T12:38:14;7.25;;;5.80;;
41653;SDS011;68687;52.030;7.110;2023-09-07T12:40:42;7.47;;;6.32;;
41653;SDS011;68687;52.030;7.110;2023-09-07T12:43:09;7.63;;;6.10;;
41653;SDS011;68687;52.030;7.110;2023-09-07T12:45:34;9.05;;;5.68;;
41653;SDS011;68687;52.030;7.110;2023-09-07T12:47:59;9.35;;;6.18;;
41653;SDS011;68687;52.030;7.110;2023-09-07T12:50:26;13.63;;;6.05;;
41653;SDS011;68687;52.030;7.110;2023-09-07T12:52:51;9.43;;;6.50;;
41653;SDS011;68687;52.030;7.110;2023-09-07T12:55:17;6.63;;;5.97;;
41653;SDS011;68687;52.030;7.110;2023-09-07T12:57:43;9.73;;;6.55;;
41653;SDS011;68687;52.030;7.110;2023-09-07T13:00:09;6.45;;;5.68;;
41653;SDS011;68687;52.030;7.110;2023-09-07T13:02:35;7.72;;;6.03;;
41653;SDS011;68687;52.030;7.110;2023-09-07T13:05:01;8.05;;;6.00;;
41653;SDS011;68687;52.030;7.110;2023-09-07T13:07:30;11.25;;;5.95;;
41653;SDS011;68687;52.030;7.110;2023-09-07T13:09:57;7.95;;;5.60;;
41653;SDS011;68687;52.030;7.110;2023-09-07T13:12:25;10.05;;;5.88;;
41653;SDS011;68687;52.030;7.110;2023-09-07T13:14:53;12.00;;;6.18;;
41653;SDS011;68687;52.030;7.110;2023-09-07T13:17:18;9.70;;;5.75;;
41653;SDS011;68687;52.030;7.110;2023-09-07T13:19:44;8.45;;;5.45;;
41653;SDS011;68687;52.030;7.110;2023-09-07T13:22:10;9.30;;;5.85;;
41653;SDS011;68687;52.030;7.110;2023-09-07T13:24:41;10.63;;;5.53;;
41653;SDS011;68687;52.030;7.110;2023-09-07T13:27:06;7.70;;;5.07;;
41653;SDS011;68687;52.030;7.110;2023-09-07T13:29:33;9.43;;;6.18;;
41653;SDS011;68687;52.030;7.110;2023-09-07T13:31:58;6.18;;;5.50;;
41653;SDS011;68687;52.030;7.110;2023-09-07T13:34:24;5.82;;;5.22;;
41653;SDS011;68687;52.030;7.110;2023-09-07T13:36:50;10.98;;;5.70;;
41653;SDS011;68687;52.030;7.110;2023-09-07T13:39:15;13.07;;;5.85;;
41653;SDS011;68687;52.030;7.110;2023-09-07T13:41:41;6.80;;;6.07;;
41653;SDS011;68687;52.030;7.110;2023-09-07T13:44:06;8.53;;;5.77;;
41653;SDS011;68687;52.030;7.110;2023-09-07T13:46:32;6.13;;;5.53;;
41653;SDS011;68687;52.030;7.110;2023-09-07T13:48:58;9.70;;;5.47;;
41653;SDS011;68687;52.030;7.110;2023-09-07T13:51:24;7.35;;;5.90;;
41653;SDS011;68687;52.030;7.110;2023-09-07T13:53:50;7.07;;;5.30;;
41653;SDS011;68687;52.030;7.110;2023-09-07T13:56:19;10.45;;;5.45;;
41653;SDS011;68687;52.030;7.110;2023-09-07T13:58:44;8.30;;;5.53;;
41653;SDS011;68687;52.030;7.110;2023-09-07T14:01:09;6.77;;;5.80;;
41653;SDS011;68687;52.030;7.110;2023-09-07T14:03:34;7.60;;;5.35;;
41653;SDS011;68687;52.030;7.110;2023-09-07T14:06:06;7.97;;;5.25;;
41653;SDS011;68687;52.030;7.110;2023-09-07T14:08:34;5.93;;;5.20;;
41653;SDS011;68687;52.030;7.110;2023-09-07T14:10:59;6.47;;;5.68;;
41653;SDS011;68687;52.030;7.110;2023-09-07T14:13:25;8.07;;;5.57;;
41653;SDS011;68687;52.030;7.110;2023-09-07T14:15:50;8.65;;;5.85;;
41653;SDS011;68687;52.030;7.110;2023-09-07T14:18:16;6.17;;;5.60;;
41653;SDS011;68687;52.030;7.110;2023-09-07T14:20:41;9.97;;;6.37;;
41653;SDS011;68687;52.030;7.110;2023-09-07T14:23:06;9.00;;;5.67;;
41653;SDS011;68687;52.030;7.110;2023-09-07T14:25:31;11.32;;;6.30;;
41653;SDS011;68687;52.030;7.110;2023-09-07T14:27:57;6.45;;;5.82;;
41653;SDS011;68687;52.030;7.110;2023-09-07T14:30:25;7.70;;;6.07;;
41653;SDS011;68687;52.030;7.110;2023-09-07T14:32:54;8.18;;;6.32;;
41653;SDS011;68687;52.030;7.110;2023-09-07T14:35:19;6.60;;;5.18;;
41653;SDS011;68687;52.030;7.110;2023-09-07T14:37:44;7.87;;;4.90;;
41653;SDS011;68687;52.030;7.110;2023-09-07T14:40:10;6.50;;;4.85;;
41653;SDS011;68687;52.030;7.110;2023-09-07T14:42:35;7.22;;;5.45;;
41653;SDS011;68687;52.030;7.110;2023-09-07T14:45:01;8.55;;;5.10;;